Time;durP1;ratioP1;P1;durP2;ratioP2;P2;SDS_P1;SDS_P2;PMS_P1;PMS_P2;Temp;Humidity;BMP_temperature;BMP_pressure;BME280_temperature;BME280_humidity;BME280_pressure;Samples;Min_cycle;Max_cycle;Signal;HPM_P1;HPM_P2
2023/05/18 00:00:09;;;;;;;8.93;3.75;;;;;;;5.27;90.19;100262.19;5095792;27;20048;-62
2023/05/18 00:02:37;;;;;;;15.45;5.07;;;;;;;5.24;91.46;100265.22;5096567;28;20040;-62
2023/05/18 00:05:07;;;;;;;10.27;3.58;;;;;;;5.16;93.75;100265.28;5089480;28;20675;-62
2023/05/18 00:07:34;;;;;;;14.45;4.97;;;;;;;5.18;90.82;100257.97;5099578;28;20073;-62
2023/05/18 00:10:01;;;;;;;8.30;3.08;;;;;;;4.96;91.53;100270.31;5096362;28;20051;-62
2023/05/18 00:12:31;;;;;;;13.57;3.70;;;;;;;4.89;92.00;100264.91;5099192;28;20100;-62
2023/05/18 00:14:59;;;;;;;12.43;3.85;;;;;;;4.84;91.69;100264.63;5102865;28;20040;-61
2023/05/18 00:17:26;;;;;;;12.82;3.75;;;;;;;4.88;91.71;100263.22;5099751;28;20470;-62
2023/05/18 00:19:53;;;;;;;10.50;3.80;;;;;;;4.84;91.07;100261.13;5096491;28;20050;-62
2023/05/18 00:22:21;;;;;;;17.75;4.03;;;;;;;4.92;91.86;100258.41;5097923;28;20051;-62
2023/05/18 00:24:48;;;;;;;12.93;3.50;;;;;;;5.01;91.64;100259.13;5097498;28;20054;-62
2023/05/18 00:27:15;;;;;;;9.82;3.70;;;;;;;5.01;91.49;100261.78;5091350;28;20036;-62
2023/05/18 00:29:42;;;;;;;10.60;4.43;;;;;;;5.03;96.22;100265.09;5068746;28;20060;-61
2023/05/18 00:32:12;;;;;;;11.27;3.92;;;;;;;4.85;91.33;100263.59;5086304;28;20040;-61
2023/05/18 00:34:40;;;;;;;9.73;3.40;;;;;;;5.01;94.03;100267.94;5071426;28;20043;-61
2023/05/18 00:37:07;;;;;;;13.98;3.65;;;;;;;5.03;93.52;100267.75;5102311;27;20100;-62
2023/05/18 00:39:35;;;;;;;11.77;3.58;;;;;;;5.06;92.11;100256.75;5100628;27;20071;-61
2023/05/18 00:42:03;;;;;;;13.75;4.15;;;;;;;4.81;91.86;100259.66;5100027;28;20043;-61
2023/05/18 00:44:30;;;;;;;12.32;3.42;;;;;;;4.77;92.18;100258.38;5074557;28;20251;-61
2023/05/18 00:46:58;;;;;;;12.55;3.72;;;;;;;4.94;97.59;100251.06;5085043;28;20040;-61
2023/05/18 00:49:26;;;;;;;9.60;3.42;;;;;;;4.71;95.05;100249.25;5087612;28;20035;-62
2023/05/18 00:51:53;;;;;;;10.60;3.80;;;;;;;4.96;99.14;100247.22;5103440;28;20424;-62
2023/05/18 00:54:20;;;;;;;10.55;3.72;;;;;;;5.01;100.00;100256.47;5083601;28;20486;-62
2023/05/18 00:56:49;;;;;;;14.00;4.03;;;;;;;4.82;94.08;100250.69;5100243;28;20382;-61
2023/05/18 00:59:17;;;;;;;10.52;3.72;;;;;;;4.57;94.78;100250.06;5078332;28;20051;-62
2023/05/18 01:01:45;;;;;;;8.80;3.70;;;;;;;4.67;93.32;100252.47;5084868;28;20511;-61
2023/05/18 01:04:13;;;;;;;15.70;4.15;;;;;;;4.80;94.11;100254.53;5083530;28;20414;-61
2023/05/18 01:06:40;;;;;;;11.43;3.75;;;;;;;4.69;92.97;100253.09;5093860;28;20040;-61
2023/05/18 01:09:08;;;;;;;9.60;4.10;;;;;;;4.62;97.38;100252.16;5095258;28;20100;-61
2023/05/18 01:11:41;;;;;;;10.73;3.97;;;;;;;4.37;96.61;100257.69;5094068;28;20054;-61
2023/05/18 01:14:12;;;;;;;10.45;4.50;;;;;;;4.32;96.30;100260.03;5096775;28;20482;-62
2023/05/18 01:16:42;;;;;;;12.48;3.85;;;;;;;4.08;96.02;100256.53;5100230;28;20064;-62
2023/05/18 01:19:20;;;;;;;12.95;3.97;;;;;;;4.11;96.43;100253.53;5092886;28;20054;-61
2023/05/18 01:21:52;;;;;;;9.52;3.85;;;;;;;4.27;99.50;100252.59;5094349;28;20449;-61
2023/05/18 01:24:24;;;;;;;8.50;4.05;;;;;;;4.21;99.17;100253.28;5097938;28;20043;-62
2023/05/18 01:26:58;;;;;;;9.05;4.10;;;;;;;4.36;100.00;100258.66;5100679;28;20504;-62
2023/05/18 01:29:26;;;;;;;11.73;3.90;;;;;;;4.49;100.00;100252.75;5078901;28;20046;-61
2023/05/18 01:31:53;;;;;;;10.00;3.70;;;;;;;4.15;97.67;100258.50;5093723;28;20424;-62
2023/05/18 01:34:21;;;;;;;13.55;3.90;;;;;;;4.21;98.25;100261.25;5098183;28;20343;-61
2023/05/18 01:36:48;;;;;;;8.48;3.88;;;;;;;4.21;99.25;100260.44;5073489;28;20508;-62
2023/05/18 01:39:15;;;;;;;15.60;4.18;;;;;;;4.17;99.07;100253.81;5096077;28;20062;-61
2023/05/18 01:41:45;;;;;;;11.93;3.83;;;;;;;4.07;100.00;100254.88;5094634;28;20121;-62
2023/05/18 01:44:17;;;;;;;17.48;4.53;;;;;;;3.90;98.82;100255.97;5087455;28;20098;-61
2023/05/18 01:46:48;;;;;;;11.73;4.22;;;;;;;4.03;99.95;100256.22;5081539;28;20051;-61
2023/05/18 01:49:18;;;;;;;9.07;3.78;;;;;;;4.33;100.00;100259.03;5081165;28;20043;-62
2023/05/18 01:51:46;;;;;;;13.60;4.20;;;;;;;3.96;97.88;100252.63;5081945;28;20097;-62
2023/05/18 01:54:14;;;;;;;10.00;4.20;;;;;;;3.82;98.47;100246.25;5099191;28;20346;-62
2023/05/18 01:56:41;;;;;;;9.60;4.07;;;;;;;3.81;98.90;100249.06;5109015;28;20113;-62
2023/05/18 01:59:08;;;;;;;10.52;3.78;;;;;;;3.71;99.05;100248.44;5078484;28;20032;-62
2023/05/18 02:01:37;;;;;;;12.05;4.25;;;;;;;3.77;100.00;100253.91;5089420;28;20067;-62
2023/05/18 02:04:08;;;;;;;9.60;4.35;;;;;;;3.60;100.00;100245.19;5086216;28;20051;-62
2023/05/18 02:06:35;;;;;;;9.70;3.80;;;;;;;3.58;100.00;100244.50;5097199;28;20139;-61
2023/05/18 02:09:02;;;;;;;13.90;4.30;;;;;;;3.65;100.00;100242.00;5092902;28;20035;-62
2023/05/18 02:11:30;;;;;;;11.27;3.75;;;;;;;3.70;100.00;100242.31;5082890;28;20146;-62
2023/05/18 02:13:58;;;;;;;9.05;3.80;;;;;;;3.57;100.00;100248.19;5078677;28;20046;-61
2023/05/18 02:16:25;;;;;;;8.35;4.10;;;;;;;3.64;100.00;100250.94;5074664;28;20039;-61
2023/05/18 02:18:54;;;;;;;13.32;3.75;;;;;;;3.52;100.00;100249.66;5094314;28;20031;-62
2023/05/18 02:21:22;;;;;;;11.13;4.28;;;;;;;3.46;100.00;100243.25;5067290;28;20125;-61
2023/05/18 02:23:49;;;;;;;8.88;3.75;;;;;;;3.40;100.00;100247.41;5074010;28;20133;-61
2023/05/18 02:26:16;;;;;;;11.80;4.60;;;;;;;3.59;100.00;100246.16;5096916;28;20411;-61
2023/05/18 02:28:43;;;;;;;9.50;3.85;;;;;;;3.51;100.00;100251.50;5083939;28;20040;-62
2023/05/18 02:31:11;;;;;;;12.30;4.38;;;;;;;3.46;100.00;100251.19;5079573;28;20638;-62
2023/05/18 02:33:39;;;;;;;10.27;4.30;;;;;;;3.33;100.00;100246.44;5084478;28;20058;-62
2023/05/18 02:36:09;;;;;;;12.43;4.43;;;;;;;3.43;100.00;100248.88;5089220;28;20482;-61
2023/05/18 02:38:37;;;;;;;10.77;4.22;;;;;;;3.42;100.00;100241.91;5101684;28;20126;-62
2023/05/18 02:41:05;;;;;;;15.63;3.85;;;;;;;3.29;100.00;100246.94;5084468;28;20064;-62
2023/05/18 02:43:32;;;;;;;9.25;4.03;;;;;;;3.10;100.00;100246.34;5103058;28;20123;-61
2023/05/18 02:46:00;;;;;;;8.05;4.07;;;;;;;3.27;100.00;100246.28;5094322;28;20051;-62
2023/05/18 02:48:28;;;;;;;14.25;4.22;;;;;;;3.12;100.00;100244.34;5081686;28;20040;-61
2023/05/18 02:50:57;;;;;;;16.80;4.30;;;;;;;3.18;100.00;100248.97;5087513;28;20071;-61
2023/05/18 02:53:26;;;;;;;11.80;4.10;;;;;;;3.12;100.00;100248.78;5082068;28;20051;-61
2023/05/18 02:56:02;;;;;;;10.23;3.88;;;;;;;3.06;100.00;100252.94;5097677;28;20043;-61
2023/05/18 02:58:34;;;;;;;8.13;4.38;;;;;;;2.99;100.00;100247.50;5082988;28;20079;-62
2023/05/18 03:01:13;;;;;;;8.70;4.13;;;;;;;2.98;100.00;100252.97;5081743;28;20052;-62
2023/05/18 03:03:46;;;;;;;11.23;4.03;;;;;;;3.01;100.00;100249.97;5081821;28;20044;-62
2023/05/18 03:06:14;;;;;;;11.85;4.80;;;;;;;3.03;100.00;100246.16;5079437;28;20044;-61
2023/05/18 03:08:47;;;;;;;9.52;4.22;;;;;;;3.14;100.00;100250.28;5080896;28;20144;-62
2023/05/18 03:11:16;;;;;;;14.27;4.03;;;;;;;3.05;100.00;100251.31;5084620;28;20067;-61
2023/05/18 03:13:43;;;;;;;13.35;4.60;;;;;;;2.94;100.00;100256.94;5098887;28;20057;-62
2023/05/18 03:16:10;;;;;;;9.27;4.10;;;;;;;3.06;100.00;100250.31;5088520;28;20047;-62
2023/05/18 03:18:37;;;;;;;10.18;4.45;;;;;;;2.86;100.00;100249.00;5085413;28;20056;-62
2023/05/18 03:21:05;;;;;;;10.13;4.15;;;;;;;2.86;100.00;100254.31;5082838;28;20036;-62
2023/05/18 03:23:32;;;;;;;10.95;4.53;;;;;;;3.01;100.00;100249.97;5084995;28;20461;-62
2023/05/18 03:26:01;;;;;;;9.98;4.00;;;;;;;2.85;100.00;100245.56;5086449;28;20071;-62
2023/05/18 03:28:29;;;;;;;13.18;4.45;;;;;;;2.71;100.00;100249.69;5079451;28;20113;-61
2023/05/18 03:30:57;;;;;;;11.18;4.15;;;;;;;2.74;100.00;100252.00;5077374;28;20482;-62
2023/05/18 03:33:25;;;;;;;10.80;4.18;;;;;;;2.88;100.00;100258.44;5078021;28;20041;-62
2023/05/18 03:35:53;;;;;;;13.38;4.55;;;;;;;2.74;100.00;100249.34;5078318;28;20036;-62
2023/05/18 03:38:20;;;;;;;13.50;4.90;;;;;;;2.93;100.00;100244.72;5091642;28;20048;-62
2023/05/18 03:40:55;;;;;;;13.98;4.55;;;;;;;2.84;100.00;100248.34;5081748;28;20134;-61
2023/05/18 03:43:24;;;;;;;13.90;4.40;;;;;;;2.97;100.00;100249.50;5076367;28;20059;-62
2023/05/18 03:45:52;;;;;;;13.13;4.85;;;;;;;3.00;100.00;100254.47;5086298;28;20043;-62
2023/05/18 03:48:19;;;;;;;13.43;4.05;;;;;;;3.07;100.00;100254.63;5083331;28;20048;-61
2023/05/18 03:50:47;;;;;;;11.35;4.40;;;;;;;3.09;100.00;100255.25;5082184;28;20040;-62
2023/05/18 03:53:17;;;;;;;9.88;4.40;;;;;;;3.28;100.00;100254.06;5076931;28;20390;-61
2023/05/18 03:55:45;;;;;;;10.85;4.50;;;;;;;3.45;100.00;100255.66;5079613;28;20051;-61
2023/05/18 03:58:11;;;;;;;12.27;4.13;;;;;;;3.68;100.00;100250.44;5083374;28;20452;-62
2023/05/18 04:00:41;;;;;;;11.48;4.13;;;;;;;3.90;98.42;100258.63;5083053;28;20122;-62
2023/05/18 04:03:11;;;;;;;8.45;3.90;;;;;;;4.45;93.72;100257.63;5074942;28;20444;-62
2023/05/18 04:05:39;;;;;;;8.70;3.67;;;;;;;5.08;90.84;100252.91;5080096;28;20440;-62
2023/05/18 04:08:07;;;;;;;12.43;3.72;;;;;;;5.41;91.81;100252.56;5080355;28;20059;-62
2023/05/18 04:10:34;;;;;;;9.70;3.60;;;;;;;5.90;84.25;100256.47;5100488;28;20054;-61
2023/05/18 04:13:01;;;;;;;9.50;3.95;;;;;;;6.52;80.67;100258.59;5086257;28;20134;-62
2023/05/18 04:15:28;;;;;;;5.38;2.83;;;;;;;7.24;76.36;100259.34;5103737;27;20097;-61
2023/05/18 04:17:58;;;;;;;7.90;3.58;;;;;;;7.29;74.61;100256.94;5090972;28;20044;-61
2023/05/18 04:20:27;;;;;;;9.35;3.17;;;;;;;7.86;75.75;100260.28;5083795;28;20497;-62
2023/05/18 04:22:54;;;;;;;10.30;3.20;;;;;;;7.78;71.43;100258.59;5098281;28;20054;-61
2023/05/18 04:25:25;;;;;;;10.85;2.85;;;;;;;8.29;71.28;100257.34;5073599;28;20040;-62
2023/05/18 04:27:53;;;;;;;7.53;3.20;;;;;;;9.02;68.64;100265.44;5105781;28;20036;-62
2023/05/18 04:30:22;;;;;;;7.13;2.85;;;;;;;8.43;69.16;100264.38;5086422;28;20035;-62
2023/05/18 04:32:50;;;;;;;12.00;3.42;;;;;;;8.14;71.71;100271.69;5082671;28;20125;-62
2023/05/18 04:35:18;;;;;;;9.38;3.00;;;;;;;9.78;65.71;100272.88;5089784;28;20127;-62
2023/05/18 04:37:45;;;;;;;11.20;3.38;;;;;;;10.88;60.83;100275.38;5099742;28;20048;-62
2023/05/18 04:40:16;;;;;;;5.18;2.60;;;;;;;10.98;59.29;100278.41;5083881;28;20054;-62
2023/05/18 04:42:46;;;;;;;8.30;2.90;;;;;;;10.85;60.17;100275.81;5076942;27;20100;-61
2023/05/18 04:45:16;;;;;;;8.57;3.03;;;;;;;11.41;57.00;100271.41;5082574;28;20090;-61
2023/05/18 04:47:45;;;;;;;7.65;2.97;;;;;;;12.08;55.06;100279.50;5084757;28;20044;-62
2023/05/18 04:50:14;;;;;;;7.57;2.90;;;;;;;11.81;55.90;100279.81;5099539;28;20105;-62
2023/05/18 04:52:46;;;;;;;9.10;3.35;;;;;;;11.36;57.02;100285.47;5080398;27;20134;-62
2023/05/18 04:55:15;;;;;;;8.93;3.15;;;;;;;12.53;55.40;100279.13;5083919;28;20397;-62
2023/05/18 04:57:43;;;;;;;6.60;2.88;;;;;;;12.48;54.18;100287.03;5083493;28;20051;-62
2023/05/18 05:00:12;;;;;;;8.77;3.40;;;;;;;12.92;52.96;100282.22;5085412;28;20032;-62
2023/05/18 05:02:40;;;;;;;6.35;2.90;;;;;;;13.35;51.98;100281.09;5086122;28;20096;-62
2023/05/18 05:05:07;;;;;;;8.88;2.92;;;;;;;14.21;49.91;100283.97;5089875;28;20097;-62
2023/05/18 05:07:34;;;;;;;8.30;2.90;;;;;;;14.87;47.87;100287.84;5098604;28;20047;-62
2023/05/18 05:10:02;;;;;;;11.40;3.00;;;;;;;14.48;49.87;100288.75;5103313;28;20051;-62
2023/05/18 05:12:31;;;;;;;9.55;2.95;;;;;;;13.93;50.21;100288.28;5085651;28;20516;-63
2023/05/18 05:14:58;;;;;;;8.10;2.85;;;;;;;14.60;49.41;100284.16;5096254;28;20136;-63
2023/05/18 05:17:25;;;;;;;7.57;3.13;;;;;;;14.23;49.38;100285.38;5100060;27;20048;-63
2023/05/18 05:19:52;;;;;;;8.65;2.88;;;;;;;14.08;49.54;100289.63;5100992;27;20052;-63
2023/05/18 05:22:19;;;;;;;9.57;2.85;;;;;;;14.77;48.47;100293.09;5080848;28;20043;-63
2023/05/18 05:24:47;;;;;;;12.02;3.50;;;;;;;15.12;47.05;100294.75;5086930;28;20510;-62
2023/05/18 05:27:15;;;;;;;8.02;3.00;;;;;;;14.83;47.96;100297.53;5074996;28;20367;-62
2023/05/18 05:29:43;;;;;;;7.78;3.30;;;;;;;16.29;45.07;100300.91;5081373;28;20040;-62
2023/05/18 05:32:11;;;;;;;9.52;3.05;;;;;;;16.81;43.99;100304.97;5087011;28;20192;-62
2023/05/18 05:34:39;;;;;;;8.93;3.13;;;;;;;16.22;44.47;100299.47;5074357;28;20048;-62
2023/05/18 05:37:06;;;;;;;9.75;3.50;;;;;;;16.28;43.27;100301.19;5080916;28;20047;-62
2023/05/18 05:39:33;;;;;;;8.63;3.75;;;;;;;16.35;44.31;100296.38;5076853;28;20044;-62
2023/05/18 05:42:00;;;;;;;8.05;3.45;;;;;;;15.84;44.61;100303.88;5086149;28;20654;-62
2023/05/18 05:44:29;;;;;;;8.80;3.50;;;;;;;17.43;41.77;100301.63;5104574;28;20470;-62
2023/05/18 05:46:56;;;;;;;7.45;2.95;;;;;;;17.73;42.61;100305.59;5078734;28;20040;-62
2023/05/18 05:49:25;;;;;;;10.07;3.53;;;;;;;17.85;42.11;100303.53;5080158;28;20047;-60
2023/05/18 05:51:52;;;;;;;8.15;3.22;;;;;;;17.46;42.26;100311.13;5082465;28;20023;-61
2023/05/18 05:54:20;;;;;;;10.10;3.25;;;;;;;17.55;42.55;100306.88;5094877;28;20044;-61
2023/05/18 05:56:47;;;;;;;12.00;3.28;;;;;;;16.79;42.47;100315.22;5069524;28;20040;-61
2023/05/18 05:59:15;;;;;;;12.07;3.47;;;;;;;17.49;41.59;100315.22;5084648;28;20040;-61
2023/05/18 06:01:45;;;;;;;10.30;3.53;;;;;;;16.71;42.56;100319.19;5085808;28;20459;-61
2023/05/18 06:04:14;;;;;;;9.50;3.42;;;;;;;16.47;43.18;100313.25;5081986;28;20044;-61
2023/05/18 06:06:42;;;;;;;9.63;3.17;;;;;;;16.98;42.97;100315.69;5082757;28;20136;-63
2023/05/18 06:09:10;;;;;;;8.47;3.20;;;;;;;17.27;41.99;100307.22;5084017;28;20131;-61
2023/05/18 06:11:38;;;;;;;8.32;3.33;;;;;;;17.46;41.70;100311.94;5083243;28;20068;-60
2023/05/18 06:14:05;;;;;;;10.02;3.50;;;;;;;18.26;40.76;100317.22;5080838;28;20050;-62
2023/05/18 06:16:33;;;;;;;10.30;3.58;;;;;;;18.17;40.48;100324.28;5083622;28;20075;-62
2023/05/18 06:19:02;;;;;;;7.45;3.05;;;;;;;17.78;41.63;100323.78;5084190;28;20048;-62
2023/05/18 06:21:30;;;;;;;11.30;3.55;;;;;;;18.40;41.33;100319.47;5080894;28;20043;-62
2023/05/18 06:24:00;;;;;;;10.95;3.58;;;;;;;17.71;42.35;100324.03;5079114;28;20075;-62
2023/05/18 06:26:56;;;;;;;9.30;3.13;;;;;;;15.53;45.50;100327.78;5014704;28;20046;-62
2023/05/18 06:29:44;;;;;;;8.00;3.08;;;;;;;16.56;43.62;100329.88;5085021;28;20127;-61
2023/05/18 06:32:30;;;;;;;12.15;3.05;;;;;;;17.28;43.28;100333.25;5085380;28;20558;-62
2023/05/18 06:34:59;;;;;;;10.23;3.58;;;;;;;17.16;43.65;100333.41;5082119;28;20460;-62
2023/05/18 06:37:27;;;;;;;10.60;3.17;;;;;;;17.10;42.87;100337.16;5088959;28;20200;-62
2023/05/18 06:39:54;;;;;;;10.48;3.60;;;;;;;17.30;43.13;100336.47;5080348;28;20040;-62
2023/05/18 06:42:21;;;;;;;11.35;3.15;;;;;;;18.08;41.78;100329.38;5084910;28;20089;-62
2023/05/18 06:45:00;;;;;;;8.57;2.83;;;;;;;17.17;42.70;100341.28;5084664;28;20043;-62
2023/05/18 06:47:45;;;;;;;8.90;2.90;;;;;;;17.93;41.97;100328.50;5073899;28;20040;-62
2023/05/18 06:50:14;;;;;;;11.27;3.30;;;;;;;18.96;40.62;100330.41;5076358;28;20090;-62
2023/05/18 06:52:42;;;;;;;10.98;3.35;;;;;;;18.98;38.48;100341.00;5084865;28;20441;-62
2023/05/18 06:55:09;;;;;;;12.88;3.28;;;;;;;19.46;38.43;100339.63;5079089;28;20160;-62
2023/05/18 06:57:37;;;;;;;11.43;3.15;;;;;;;18.51;40.22;100337.38;5080031;28;20037;-62
2023/05/18 07:00:06;;;;;;;8.05;2.97;;;;;;;17.71;40.16;100332.16;5084495;28;20040;-62
2023/05/18 07:02:33;;;;;;;12.38;3.40;;;;;;;18.29;39.35;100332.97;5086468;28;20035;-61
2023/05/18 07:05:00;;;;;;;11.25;3.03;;;;;;;17.82;41.06;100331.19;5085592;28;20093;-61
2023/05/18 07:07:28;;;;;;;15.35;3.17;;;;;;;16.56;42.40;100335.28;5080832;28;20064;-61
2023/05/18 07:09:56;;;;;;;11.32;3.42;;;;;;;14.86;43.68;100332.13;5087751;28;20409;-61
2023/05/18 07:12:24;;;;;;;7.75;2.80;;;;;;;17.38;41.60;100330.59;5103610;28;20085;-61
2023/05/18 07:14:51;;;;;;;11.23;3.03;;;;;;;17.47;41.27;100329.03;5089640;28;20053;-61
2023/05/18 07:17:18;;;;;;;11.18;3.05;;;;;;;18.64;39.60;100328.72;5102631;28;20096;-61
2023/05/18 07:19:45;;;;;;;11.50;3.13;;;;;;;19.26;38.35;100331.50;5101008;28;20393;-61
2023/05/18 07:22:13;;;;;;;10.70;2.95;;;;;;;16.86;41.09;100334.78;5078906;28;20486;-61
2023/05/18 07:24:42;;;;;;;11.43;3.10;;;;;;;17.43;43.00;100339.56;5100860;27;20039;-61
2023/05/18 07:27:09;;;;;;;10.38;2.92;;;;;;;18.30;40.97;100333.81;5097329;28;20059;-60
2023/05/18 07:29:36;;;;;;;12.85;3.25;;;;;;;18.66;39.10;100328.44;5094299;28;20048;-62
2023/05/18 07:32:03;;;;;;;14.00;3.47;;;;;;;17.88;40.10;100319.25;5103439;27;20048;-61
2023/05/18 07:34:30;;;;;;;12.45;3.70;;;;;;;18.38;38.40;100332.47;5098782;27;20039;-60
2023/05/18 07:36:57;;;;;;;10.90;3.13;;;;;;;18.21;39.41;100328.06;5102021;27;20049;-62
2023/05/18 07:39:27;;;;;;;10.93;2.90;;;;;;;17.13;41.16;100334.75;5105316;27;20100;-60
2023/05/18 07:41:55;;;;;;;11.10;3.42;;;;;;;14.86;44.53;100323.22;5104599;28;20485;-62
2023/05/18 07:44:23;;;;;;;10.85;3.45;;;;;;;16.12;43.90;100319.09;5073181;28;20520;-62
2023/05/18 07:46:50;;;;;;;10.68;3.50;;;;;;;18.06;40.93;100314.44;5096424;28;20036;-62
2023/05/18 07:49:17;;;;;;;15.60;3.58;;;;;;;18.29;39.49;100324.81;5096122;28;20082;-62
2023/05/18 07:51:44;;;;;;;13.13;3.42;;;;;;;18.90;39.82;100313.31;5106262;27;20239;-62
2023/05/18 07:54:11;;;;;;;18.35;3.33;;;;;;;18.21;40.43;100321.81;5095648;28;20082;-62
2023/05/18 07:56:39;;;;;;;12.48;3.15;;;;;;;18.20;40.96;100314.78;5103053;28;20658;-62
2023/05/18 07:59:09;;;;;;;11.13;3.22;;;;;;;17.52;41.03;100322.81;5095240;28;20039;-62
2023/05/18 08:01:37;;;;;;;13.70;3.72;;;;;;;16.79;40.98;100315.22;5099514;28;20645;-62
2023/05/18 08:04:04;;;;;;;8.48;2.88;;;;;;;17.94;40.43;100311.94;5099557;28;20508;-62
2023/05/18 08:06:31;;;;;;;7.80;2.88;;;;;;;16.95;42.25;100311.59;5100872;28;20212;-62
2023/05/18 08:08:58;;;;;;;11.23;3.42;;;;;;;17.33;41.65;100309.69;5101500;28;20059;-62
2023/05/18 08:11:25;;;;;;;10.85;3.35;;;;;;;18.38;39.78;100305.34;5095479;28;20130;-62
2023/05/18 08:13:52;;;;;;;11.68;3.53;;;;;;;19.47;39.79;100310.50;5080247;28;20507;-62
2023/05/18 08:16:21;;;;;;;12.82;3.30;;;;;;;17.42;41.31;100310.00;5101400;28;20047;-62
2023/05/18 08:18:48;;;;;;;9.98;2.80;;;;;;;18.64;39.45;100309.69;5106419;27;20039;-61
2023/05/18 08:21:15;;;;;;;10.18;3.55;;;;;;;17.35;42.16;100301.31;5103124;27;20038;-62
2023/05/18 08:23:42;;;;;;;10.60;3.10;;;;;;;17.93;40.37;100304.09;5100069;28;20376;-62
2023/05/18 08:26:11;;;;;;;9.35;2.95;;;;;;;18.06;41.52;100304.41;5102055;28;20349;-62
2023/05/18 08:28:38;;;;;;;9.20;3.15;;;;;;;18.94;39.22;100292.63;5101238;28;20134;-62
2023/05/18 08:31:06;;;;;;;16.88;3.80;;;;;;;17.83;40.42;100294.84;5103755;28;20035;-61
2023/05/18 08:33:34;;;;;;;12.00;3.25;;;;;;;17.87;40.81;100295.09;5100875;28;20039;-61
2023/05/18 08:36:01;;;;;;;11.10;3.95;;;;;;;17.81;42.54;100288.03;5094679;28;20039;-62
2023/05/18 08:38:28;;;;;;;11.05;3.22;;;;;;;17.03;41.78;100302.97;5079415;28;20052;-62
2023/05/18 08:40:59;;;;;;;12.82;3.58;;;;;;;14.97;46.07;100292.59;5100569;28;20039;-62
2023/05/18 08:43:31;;;;;;;14.55;3.30;;;;;;;15.41;46.17;100297.34;5102726;27;20047;-62
2023/05/18 08:46:03;;;;;;;11.90;3.60;;;;;;;16.13;46.08;100299.94;5095012;28;20097;-62
2023/05/18 08:48:31;;;;;;;11.13;3.28;;;;;;;17.59;42.81;100294.41;5092921;28;20040;-62
2023/05/18 08:51:00;;;;;;;11.57;3.50;;;;;;;17.44;42.85;100297.84;5095231;28;20138;-63
2023/05/18 08:53:27;;;;;;;10.57;3.40;;;;;;;18.05;41.92;100301.97;5097680;28;20454;-60
2023/05/18 08:55:54;;;;;;;13.95;3.30;;;;;;;17.16;42.69;100301.72;5100180;28;20382;-61
2023/05/18 08:58:22;;;;;;;15.80;3.13;;;;;;;17.25;41.64;100304.78;5101225;28;20126;-63
2023/05/18 09:00:52;;;;;;;9.55;3.05;;;;;;;16.53;42.90;100303.31;5102376;28;20099;-62
2023/05/18 09:03:21;;;;;;;15.15;3.35;;;;;;;15.91;43.56;100302.63;5099046;28;20093;-62
2023/05/18 09:05:48;;;;;;;14.02;3.38;;;;;;;16.01;45.12;100295.72;5070003;28;20113;-61
2023/05/18 09:08:17;;;;;;;9.45;2.85;;;;;;;17.29;42.20;100289.63;5096633;28;20139;-62
2023/05/18 09:10:44;;;;;;;14.75;2.97;;;;;;;16.84;42.82;100292.81;5097991;28;20051;-61
2023/05/18 09:13:11;;;;;;;12.15;3.58;;;;;;;16.27;44.52;100288.69;5100343;28;20124;-61
2023/05/18 09:15:38;;;;;;;13.40;3.17;;;;;;;16.56;42.55;100295.50;5101924;28;20453;-62
2023/05/18 09:18:05;;;;;;;10.43;3.17;;;;;;;15.38;45.84;100278.94;5100937;28;20043;-61
2023/05/18 09:20:32;;;;;;;11.25;3.58;;;;;;;15.86;44.88;100280.94;5096385;28;20105;-61
2023/05/18 09:22:59;;;;;;;14.38;3.70;;;;;;;15.79;43.98;100282.19;5099918;28;20036;-61
2023/05/18 09:25:28;;;;;;;13.18;3.10;;;;;;;15.89;45.95;100283.13;5095912;28;20046;-61
2023/05/18 09:27:55;;;;;;;12.43;3.40;;;;;;;17.53;42.58;100276.50;5102489;27;20719;-61
2023/05/18 09:30:22;;;;;;;11.68;3.08;;;;;;;16.33;43.63;100272.28;5093796;28;20139;-62
2023/05/18 09:32:49;;;;;;;13.18;3.17;;;;;;;16.56;42.97;100270.34;5095764;28;20043;-63
2023/05/18 09:35:16;;;;;;;12.45;2.88;;;;;;;16.77;42.93;100265.91;5099272;28;20068;-61
2023/05/18 09:37:43;;;;;;;9.25;2.85;;;;;;;16.99;39.83;100268.56;5099917;28;20050;-61
2023/05/18 09:40:11;;;;;;;14.77;3.40;;;;;;;16.85;40.74;100279.03;5108513;27;20405;-61
2023/05/18 09:42:41;;;;;;;10.60;2.63;;;;;;;17.19;38.54;100270.59;5108823;27;20040;-61
2023/05/18 09:45:16;;;;;;;10.88;3.10;;;;;;;16.66;41.14;100258.78;5105177;28;20036;-61
2023/05/18 09:47:43;;;;;;;9.60;2.55;;;;;;;16.32;41.43;100264.41;5102924;28;20052;-61
2023/05/18 09:50:10;;;;;;;30.70;3.40;;;;;;;16.37;42.72;100259.03;5101659;28;20127;-61
2023/05/18 09:52:41;;;;;;;13.93;3.13;;;;;;;15.03;44.40;100263.84;5107768;28;20046;-62
2023/05/18 09:55:09;;;;;;;8.07;2.92;;;;;;;14.87;45.55;100257.38;5097812;28;20066;-63
2023/05/18 09:57:40;;;;;;;17.02;3.70;;;;;;;15.45;41.96;100261.47;5098777;28;20048;-62
2023/05/18 10:00:10;;;;;;;11.57;2.97;;;;;;;16.16;42.81;100249.91;5082202;28;20466;-63
2023/05/18 10:02:38;;;;;;;;;;;;;;;16.39;42.11;100260.44;5099575;28;20048;-62
2023/05/18 10:05:06;;;;;;;8.88;2.70;;;;;;;15.17;43.83;100254.31;5106089;27;20373;-62
2023/05/18 10:07:34;;;;;;;9.68;2.67;;;;;;;14.40;44.90;100250.38;5102127;28;20070;-62
2023/05/18 10:10:02;;;;;;;10.98;3.22;;;;;;;14.92;45.10;100245.84;5091623;28;20154;-62
2023/05/18 10:12:29;;;;;;;12.57;3.00;;;;;;;14.33;45.00;100249.69;5105681;27;20048;-62
2023/05/18 10:14:57;;;;;;;9.80;2.85;;;;;;;14.54;45.77;100258.97;5104686;27;20035;-62
2023/05/18 10:17:26;;;;;;;9.88;2.80;;;;;;;14.88;44.91;100242.81;5098301;28;20098;-62
2023/05/18 10:19:53;;;;;;;9.48;2.97;;;;;;;15.39;44.69;100240.84;5099264;28;20039;-63
2023/05/18 10:22:21;;;;;;;8.32;2.67;;;;;;;16.64;41.85;100250.09;5102571;28;20044;-62
2023/05/18 10:24:50;;;;;;;8.88;3.00;;;;;;;16.81;41.21;100231.88;5102156;28;20071;-61
2023/05/18 10:27:17;;;;;;;9.63;2.95;;;;;;;17.27;39.11;100236.78;5103383;28;20055;-61
2023/05/18 10:29:45;;;;;;;9.80;2.90;;;;;;;16.73;40.43;100237.75;5099469;28;20072;-62
2023/05/18 10:32:14;;;;;;;12.45;3.03;;;;;;;15.93;41.38;100237.50;5105257;27;20059;-62
2023/05/18 10:34:42;;;;;;;8.80;2.70;;;;;;;15.84;41.53;100229.00;5104842;28;20069;-62
2023/05/18 10:37:09;;;;;;;12.07;3.40;;;;;;;16.93;42.09;100224.38;5102354;28;20518;-62
2023/05/18 10:39:36;;;;;;;9.45;3.10;;;;;;;16.68;40.86;100218.75;5102079;28;20068;-62
2023/05/18 10:42:04;;;;;;;15.13;2.88;;;;;;;16.20;40.14;100234.81;5106204;27;20417;-62
2023/05/18 10:44:31;;;;;;;13.80;3.72;;;;;;;16.09;40.23;100230.38;5103194;27;20094;-62
2023/05/18 10:46:58;;;;;;;16.33;3.20;;;;;;;16.00;40.21;100219.22;5108795;28;20559;-62
2023/05/18 10:49:27;;;;;;;13.00;3.22;;;;;;;17.67;40.37;100214.47;5103635;28;20040;-61
2023/05/18 10:51:54;;;;;;;9.85;2.80;;;;;;;17.91;39.52;100208.63;5098755;28;20122;-61
2023/05/18 10:54:21;;;;;;;16.20;3.72;;;;;;;18.00;39.57;100207.03;5105178;28;20043;-61
2023/05/18 10:56:51;;;;;;;10.13;2.60;;;;;;;17.82;38.87;100205.59;5102876;28;20933;-61
2023/05/18 10:59:19;;;;;;;10.82;3.05;;;;;;;17.16;40.92;100215.03;5102091;28;20560;-61
2023/05/18 11:01:46;;;;;;;11.75;2.92;;;;;;;15.83;41.52;100210.38;5097772;28;20059;-61
2023/05/18 11:04:13;;;;;;;9.82;2.65;;;;;;;17.28;40.39;100203.19;5083820;28;20040;-61
2023/05/18 11:06:41;;;;;;;10.48;3.08;;;;;;;16.80;42.55;100205.88;5105442;28;20063;-61
2023/05/18 11:09:08;;;;;;;10.57;3.00;;;;;;;17.52;40.49;100214.41;5104155;28;20048;-62
2023/05/18 11:11:50;;;;;;;13.45;3.35;;;;;;;17.08;40.81;100212.84;5103970;28;20048;-61
2023/05/18 11:14:23;;;;;;;15.50;3.03;;;;;;;16.43;41.07;100206.63;5099229;28;20585;-62
2023/05/18 11:16:50;;;;;;;11.48;3.00;;;;;;;15.58;42.73;100202.75;5107648;28;20397;-62
2023/05/18 11:19:19;;;;;;;10.27;3.03;;;;;;;16.64;42.16;100199.50;5098777;28;20205;-61
2023/05/18 11:21:53;;;;;;;8.35;3.10;;;;;;;16.41;41.83;100195.25;5102428;28;20032;-62
2023/05/18 11:24:25;;;;;;;11.23;3.30;;;;;;;17.58;39.91;100199.81;5104962;28;20569;-61
2023/05/18 11:26:52;;;;;;;12.55;3.15;;;;;;;17.26;40.09;100200.75;5100214;28;20047;-61